sensor_id;sensor_type;location;lat;lon;timestamp;P1;durP1;ratioP1;P2;durP2;ratioP2
69046;SDS011;57261;47.504;19.084;2023-01-16T00:01:37;30.73;;;17.90;;
69046;SDS011;57261;47.504;19.084;2023-01-16T00:04:37;27.20;;;16.43;;
69046;SDS011;57261;47.504;19.084;2023-01-16T00:07:38;33.53;;;18.65;;
69046;SDS011;57261;47.504;19.084;2023-01-16T00:10:38;35.67;;;20.27;;
69046;SDS011;57261;47.504;19.084;2023-01-16T00:13:39;33.87;;;19.37;;
69046;SDS011;57261;47.504;19.084;2023-01-16T00:16:39;33.75;;;20.33;;
69046;SDS011;57261;47.504;19.084;2023-01-16T00:19:40;34.03;;;20.27;;
69046;SDS011;57261;47.504;19.084;2023-01-16T00:22:40;33.37;;;18.27;;
69046;SDS011;57261;47.504;19.084;2023-01-16T00:25:41;32.67;;;18.50;;
69046;SDS011;57261;47.504;19.084;2023-01-16T00:28:42;31.63;;;18.77;;
69046;SDS011;57261;47.504;19.084;2023-01-16T00:31:43;32.07;;;18.80;;
69046;SDS011;57261;47.504;19.084;2023-01-16T00:34:43;32.03;;;19.13;;
69046;SDS011;57261;47.504;19.084;2023-01-16T00:37:44;33.70;;;19.05;;
69046;SDS011;57261;47.504;19.084;2023-01-16T00:40:44;30.37;;;17.47;;
69046;SDS011;57261;47.504;19.084;2023-01-16T00:43:44;30.87;;;18.33;;
69046;SDS011;57261;47.504;19.084;2023-01-16T00:46:45;30.97;;;17.90;;
69046;SDS011;57261;47.504;19.084;2023-01-16T00:49:45;31.63;;;18.70;;
69046;SDS011;57261;47.504;19.084;2023-01-16T00:52:46;30.00;;;18.33;;
69046;SDS011;57261;47.504;19.084;2023-01-16T00:55:46;28.55;;;17.17;;
69046;SDS011;57261;47.504;19.084;2023-01-16T00:58:47;32.17;;;17.50;;
69046;SDS011;57261;47.504;19.084;2023-01-16T01:01:47;30.53;;;17.93;;
69046;SDS011;57261;47.504;19.084;2023-01-16T01:04:47;28.37;;;17.53;;
69046;SDS011;57261;47.504;19.084;2023-01-16T01:07:51;29.70;;;17.07;;
69046;SDS011;57261;47.504;19.084;2023-01-16T01:10:54;29.58;;;17.42;;
69046;SDS011;57261;47.504;19.084;2023-01-16T01:13:55;29.43;;;17.83;;
69046;SDS011;57261;47.504;19.084;2023-01-16T01:16:55;28.30;;;16.73;;
69046;SDS011;57261;47.504;19.084;2023-01-16T01:19:57;28.45;;;17.83;;
69046;SDS011;57261;47.504;19.084;2023-01-16T01:22:57;28.03;;;17.07;;
69046;SDS011;57261;47.504;19.084;2023-01-16T01:25:58;28.83;;;16.35;;
69046;SDS011;57261;47.504;19.084;2023-01-16T01:29:04;28.73;;;16.77;;
69046;SDS011;57261;47.504;19.084;2023-01-16T01:32:05;30.25;;;18.13;;
69046;SDS011;57261;47.504;19.084;2023-01-16T01:35:06;29.43;;;17.63;;
69046;SDS011;57261;47.504;19.084;2023-01-16T01:38:07;29.77;;;17.30;;
69046;SDS011;57261;47.504;19.084;2023-01-16T01:41:08;27.93;;;16.63;;
69046;SDS011;57261;47.504;19.084;2023-01-16T01:48:34;28.02;;;16.98;;
69046;SDS011;57261;47.504;19.084;2023-01-16T01:51:20;30.57;;;17.37;;
69046;SDS011;57261;47.504;19.084;2023-01-16T01:54:41;30.50;;;16.83;;
69046;SDS011;57261;47.504;19.084;2023-01-16T01:57:54;26.67;;;16.00;;
69046;SDS011;57261;47.504;19.084;2023-01-16T02:00:59;26.20;;;15.97;;
69046;SDS011;57261;47.504;19.084;2023-01-16T02:04:02;27.40;;;16.55;;
69046;SDS011;57261;47.504;19.084;2023-01-16T02:07:09;26.88;;;15.38;;
69046;SDS011;57261;47.504;19.084;2023-01-16T02:10:49;24.40;;;15.20;;
69046;SDS011;57261;47.504;19.084;2023-01-16T02:13:47;29.40;;;16.30;;
69046;SDS011;57261;47.504;19.084;2023-01-16T02:16:48;24.77;;;14.35;;
69046;SDS011;57261;47.504;19.084;2023-01-16T02:20:19;25.05;;;15.40;;
69046;SDS011;57261;47.504;19.084;2023-01-16T02:23:31;25.42;;;14.60;;
69046;SDS011;57261;47.504;19.084;2023-01-16T02:33:21;25.33;;;14.60;;
69046;SDS011;57261;47.504;19.084;2023-01-16T02:43:56;28.25;;;15.45;;
69046;SDS011;57261;47.504;19.084;2023-01-16T02:50:22;25.23;;;14.60;;
69046;SDS011;57261;47.504;19.084;2023-01-16T02:53:34;24.95;;;14.43;;
69046;SDS011;57261;47.504;19.084;2023-01-16T02:56:47;24.33;;;14.07;;
69046;SDS011;57261;47.504;19.084;2023-01-16T02:59:51;23.65;;;14.60;;
69046;SDS011;57261;47.504;19.084;2023-01-16T03:02:52;24.57;;;14.30;;
69046;SDS011;57261;47.504;19.084;2023-01-16T03:05:52;24.83;;;15.13;;
69046;SDS011;57261;47.504;19.084;2023-01-16T03:22:52;25.65;;;14.23;;
69046;SDS011;57261;47.504;19.084;2023-01-16T03:26:16;24.88;;;13.80;;
69046;SDS011;57261;47.504;19.084;2023-01-16T03:29:27;23.60;;;13.97;;
69046;SDS011;57261;47.504;19.084;2023-01-16T03:32:46;24.67;;;14.73;;
69046;SDS011;57261;47.504;19.084;2023-01-16T03:35:56;24.48;;;13.63;;
69046;SDS011;57261;47.504;19.084;2023-01-16T03:39:02;25.43;;;14.00;;
69046;SDS011;57261;47.504;19.084;2023-01-16T03:42:20;24.85;;;13.48;;
69046;SDS011;57261;47.504;19.084;2023-01-16T03:45:28;26.08;;;14.30;;
69046;SDS011;57261;47.504;19.084;2023-01-16T03:48:38;24.80;;;14.02;;
69046;SDS011;57261;47.504;19.084;2023-01-16T03:51:45;28.83;;;14.80;;
69046;SDS011;57261;47.504;19.084;2023-01-16T03:58:28;28.10;;;14.43;;
69046;SDS011;57261;47.504;19.084;2023-01-16T04:01:38;25.30;;;13.20;;
69046;SDS011;57261;47.504;19.084;2023-01-16T04:04:52;24.80;;;14.15;;
69046;SDS011;57261;47.504;19.084;2023-01-16T04:08:01;26.70;;;14.27;;
69046;SDS011;57261;47.504;19.084;2023-01-16T04:11:08;28.30;;;14.40;;
69046;SDS011;57261;47.504;19.084;2023-01-16T04:14:12;24.20;;;13.55;;
69046;SDS011;57261;47.504;19.084;2023-01-16T04:17:15;26.65;;;14.48;;
69046;SDS011;57261;47.504;19.084;2023-01-16T04:20:17;27.45;;;14.02;;
69046;SDS011;57261;47.504;19.084;2023-01-16T04:23:22;27.58;;;14.40;;
69046;SDS011;57261;47.504;19.084;2023-01-16T04:26:23;26.52;;;14.45;;
69046;SDS011;57261;47.504;19.084;2023-01-16T04:29:23;27.23;;;14.27;;
69046;SDS011;57261;47.504;19.084;2023-01-16T04:32:25;26.42;;;14.20;;
69046;SDS011;57261;47.504;19.084;2023-01-16T04:35:30;27.27;;;14.33;;
69046;SDS011;57261;47.504;19.084;2023-01-16T04:38:31;32.67;;;15.35;;
69046;SDS011;57261;47.504;19.084;2023-01-16T04:41:32;26.67;;;14.00;;
69046;SDS011;57261;47.504;19.084;2023-01-16T04:44:39;28.25;;;13.85;;
69046;SDS011;57261;47.504;19.084;2023-01-16T04:47:40;30.07;;;15.33;;
69046;SDS011;57261;47.504;19.084;2023-01-16T04:50:47;31.40;;;15.05;;
69046;SDS011;57261;47.504;19.084;2023-01-16T04:53:49;27.27;;;14.20;;
69046;SDS011;57261;47.504;19.084;2023-01-16T04:56:50;27.37;;;14.07;;
69046;SDS011;57261;47.504;19.084;2023-01-16T04:59:52;29.50;;;15.05;;
69046;SDS011;57261;47.504;19.084;2023-01-16T05:02:52;28.80;;;14.10;;
69046;SDS011;57261;47.504;19.084;2023-01-16T05:05:53;30.20;;;15.25;;
69046;SDS011;57261;47.504;19.084;2023-01-16T05:08:53;30.65;;;15.52;;
69046;SDS011;57261;47.504;19.084;2023-01-16T05:11:54;30.70;;;15.13;;
69046;SDS011;57261;47.504;19.084;2023-01-16T05:14:54;30.60;;;15.53;;
69046;SDS011;57261;47.504;19.084;2023-01-16T05:17:54;30.00;;;15.50;;
69046;SDS011;57261;47.504;19.084;2023-01-16T05:20:57;30.50;;;16.55;;
69046;SDS011;57261;47.504;19.084;2023-01-16T05:23:57;28.67;;;14.98;;
69046;SDS011;57261;47.504;19.084;2023-01-16T05:26:59;33.20;;;17.67;;
69046;SDS011;57261;47.504;19.084;2023-01-16T05:30:00;30.20;;;15.43;;
69046;SDS011;57261;47.504;19.084;2023-01-16T05:33:01;32.40;;;16.30;;
69046;SDS011;57261;47.504;19.084;2023-01-16T05:36:05;29.33;;;15.50;;
69046;SDS011;57261;47.504;19.084;2023-01-16T05:39:06;31.80;;;16.87;;
69046;SDS011;57261;47.504;19.084;2023-01-16T05:42:06;33.45;;;16.90;;
69046;SDS011;57261;47.504;19.084;2023-01-16T05:45:20;30.40;;;15.48;;
69046;SDS011;57261;47.504;19.084;2023-01-16T05:48:21;31.13;;;15.60;;
69046;SDS011;57261;47.504;19.084;2023-01-16T05:51:23;35.83;;;19.20;;
69046;SDS011;57261;47.504;19.084;2023-01-16T05:54:33;32.85;;;17.10;;
69046;SDS011;57261;47.504;19.084;2023-01-16T05:57:33;41.03;;;22.17;;
69046;SDS011;57261;47.504;19.084;2023-01-16T06:00:34;37.10;;;20.43;;
69046;SDS011;57261;47.504;19.084;2023-01-16T06:03:34;33.33;;;17.57;;
69046;SDS011;57261;47.504;19.084;2023-01-16T06:06:35;38.83;;;20.95;;
69046;SDS011;57261;47.504;19.084;2023-01-16T06:09:35;39.00;;;21.80;;
69046;SDS011;57261;47.504;19.084;2023-01-16T06:12:36;36.63;;;19.17;;
69046;SDS011;57261;47.504;19.084;2023-01-16T06:15:36;39.37;;;21.57;;
69046;SDS011;57261;47.504;19.084;2023-01-16T06:18:37;44.70;;;24.45;;
69046;SDS011;57261;47.504;19.084;2023-01-16T06:21:37;35.53;;;19.77;;
69046;SDS011;57261;47.504;19.084;2023-01-16T06:24:38;47.37;;;26.20;;
69046;SDS011;57261;47.504;19.084;2023-01-16T06:27:38;40.07;;;21.87;;
69046;SDS011;57261;47.504;19.084;2023-01-16T06:30:39;46.67;;;25.35;;
69046;SDS011;57261;47.504;19.084;2023-01-16T06:33:40;37.60;;;20.37;;
69046;SDS011;57261;47.504;19.084;2023-01-16T06:36:42;44.95;;;24.30;;
69046;SDS011;57261;47.504;19.084;2023-01-16T06:39:44;43.20;;;22.77;;
69046;SDS011;57261;47.504;19.084;2023-01-16T06:42:44;47.03;;;26.07;;
69046;SDS011;57261;47.504;19.084;2023-01-16T06:45:46;47.08;;;24.52;;
69046;SDS011;57261;47.504;19.084;2023-01-16T06:48:47;38.10;;;21.33;;
69046;SDS011;57261;47.504;19.084;2023-01-16T06:51:47;43.10;;;24.13;;
69046;SDS011;57261;47.504;19.084;2023-01-16T06:54:48;41.90;;;22.60;;
69046;SDS011;57261;47.504;19.084;2023-01-16T06:57:51;45.08;;;24.20;;
69046;SDS011;57261;47.504;19.084;2023-01-16T07:00:51;41.80;;;22.03;;
69046;SDS011;57261;47.504;19.084;2023-01-16T07:03:53;38.55;;;21.05;;
69046;SDS011;57261;47.504;19.084;2023-01-16T07:06:53;40.20;;;21.53;;
69046;SDS011;57261;47.504;19.084;2023-01-16T07:09:54;40.67;;;22.57;;
69046;SDS011;57261;47.504;19.084;2023-01-16T07:12:54;41.03;;;22.20;;
69046;SDS011;57261;47.504;19.084;2023-01-16T07:15:55;35.33;;;18.83;;
69046;SDS011;57261;47.504;19.084;2023-01-16T07:19:14;38.55;;;21.33;;
69046;SDS011;57261;47.504;19.084;2023-01-16T07:22:33;34.60;;;19.10;;
69046;SDS011;57261;47.504;19.084;2023-01-16T07:25:40;39.60;;;22.00;;
69046;SDS011;57261;47.504;19.084;2023-01-16T07:28:41;40.57;;;21.97;;
69046;SDS011;57261;47.504;19.084;2023-01-16T07:31:41;30.63;;;16.80;;
69046;SDS011;57261;47.504;19.084;2023-01-16T07:34:42;29.50;;;16.48;;
69046;SDS011;57261;47.504;19.084;2023-01-16T07:37:44;34.10;;;17.90;;
69046;SDS011;57261;47.504;19.084;2023-01-16T07:40:45;36.05;;;19.15;;
69046;SDS011;57261;47.504;19.084;2023-01-16T07:43:46;37.60;;;19.40;;
69046;SDS011;57261;47.504;19.084;2023-01-16T07:46:46;36.97;;;19.27;;
69046;SDS011;57261;47.504;19.084;2023-01-16T07:49:47;35.77;;;19.47;;
69046;SDS011;57261;47.504;19.084;2023-01-16T07:52:47;35.72;;;19.02;;
69046;SDS011;57261;47.504;19.084;2023-01-16T07:55:51;30.63;;;17.77;;
69046;SDS011;57261;47.504;19.084;2023-01-16T07:58:58;33.33;;;18.60;;
69046;SDS011;57261;47.504;19.084;2023-01-16T08:01:58;34.17;;;19.65;;
69046;SDS011;57261;47.504;19.084;2023-01-16T08:05:01;35.30;;;19.27;;
69046;SDS011;57261;47.504;19.084;2023-01-16T08:08:02;34.17;;;19.33;;
69046;SDS011;57261;47.504;19.084;2023-01-16T08:11:03;32.78;;;18.13;;
69046;SDS011;57261;47.504;19.084;2023-01-16T08:14:24;31.70;;;17.70;;
69046;SDS011;57261;47.504;19.084;2023-01-16T08:17:25;34.35;;;17.30;;
69046;SDS011;57261;47.504;19.084;2023-01-16T08:20:26;34.83;;;18.87;;
69046;SDS011;57261;47.504;19.084;2023-01-16T08:23:26;36.15;;;19.17;;
69046;SDS011;57261;47.504;19.084;2023-01-16T08:26:27;31.77;;;18.40;;
69046;SDS011;57261;47.504;19.084;2023-01-16T08:29:29;64.83;;;36.50;;
69046;SDS011;57261;47.504;19.084;2023-01-16T08:32:29;34.20;;;19.38;;
69046;SDS011;57261;47.504;19.084;2023-01-16T08:35:30;33.22;;;18.30;;
69046;SDS011;57261;47.504;19.084;2023-01-16T08:38:31;34.53;;;19.47;;
69046;SDS011;57261;47.504;19.084;2023-01-16T08:41:32;35.28;;;18.90;;
69046;SDS011;57261;47.504;19.084;2023-01-16T08:44:51;33.65;;;17.83;;
69046;SDS011;57261;47.504;19.084;2023-01-16T08:48:09;32.25;;;17.17;;
69046;SDS011;57261;47.504;19.084;2023-01-16T08:51:29;33.30;;;18.00;;
69046;SDS011;57261;47.504;19.084;2023-01-16T08:54:30;32.45;;;17.75;;
69046;SDS011;57261;47.504;19.084;2023-01-16T08:57:30;31.37;;;17.77;;
69046;SDS011;57261;47.504;19.084;2023-01-16T09:00:33;36.10;;;19.33;;
69046;SDS011;57261;47.504;19.084;2023-01-16T09:03:34;33.50;;;19.20;;
69046;SDS011;57261;47.504;19.084;2023-01-16T09:06:34;32.57;;;17.77;;
69046;SDS011;57261;47.504;19.084;2023-01-16T09:09:37;33.60;;;18.17;;
69046;SDS011;57261;47.504;19.084;2023-01-16T09:12:40;31.55;;;17.73;;
69046;SDS011;57261;47.504;19.084;2023-01-16T09:16:01;31.23;;;17.13;;
69046;SDS011;57261;47.504;19.084;2023-01-16T09:19:02;31.05;;;18.15;;
69046;SDS011;57261;47.504;19.084;2023-01-16T09:22:03;34.33;;;17.80;;
69046;SDS011;57261;47.504;19.084;2023-01-16T09:25:07;33.28;;;16.83;;
69046;SDS011;57261;47.504;19.084;2023-01-16T09:28:08;34.95;;;17.25;;
69046;SDS011;57261;47.504;19.084;2023-01-16T09:31:08;32.03;;;16.97;;
69046;SDS011;57261;47.504;19.084;2023-01-16T09:34:12;29.33;;;15.83;;
69046;SDS011;57261;47.504;19.084;2023-01-16T09:37:12;35.13;;;17.48;;
69046;SDS011;57261;47.504;19.084;2023-01-16T09:40:17;35.03;;;18.03;;
69046;SDS011;57261;47.504;19.084;2023-01-16T09:43:41;33.63;;;17.45;;
69046;SDS011;57261;47.504;19.084;2023-01-16T09:46:44;35.67;;;17.08;;
69046;SDS011;57261;47.504;19.084;2023-01-16T09:49:52;34.93;;;17.50;;
69046;SDS011;57261;47.504;19.084;2023-01-16T09:52:58;33.22;;;17.30;;
69046;SDS011;57261;47.504;19.084;2023-01-16T09:56:41;34.30;;;16.95;;
69046;SDS011;57261;47.504;19.084;2023-01-16T10:00:02;33.87;;;16.60;;
69046;SDS011;57261;47.504;19.084;2023-01-16T10:03:05;32.30;;;16.48;;
69046;SDS011;57261;47.504;19.084;2023-01-16T10:06:13;30.63;;;15.87;;
69046;SDS011;57261;47.504;19.084;2023-01-16T10:09:39;32.72;;;16.90;;
69046;SDS011;57261;47.504;19.084;2023-01-16T10:12:46;32.03;;;16.67;;
69046;SDS011;57261;47.504;19.084;2023-01-16T10:25:56;37.97;;;17.43;;
69046;SDS011;57261;47.504;19.084;2023-01-16T10:35:42;36.83;;;18.40;;
69046;SDS011;57261;47.504;19.084;2023-01-16T10:38:49;37.70;;;17.48;;
69046;SDS011;57261;47.504;19.084;2023-01-16T10:41:57;32.63;;;16.73;;
69046;SDS011;57261;47.504;19.084;2023-01-16T10:45:28;33.88;;;17.40;;
69046;SDS011;57261;47.504;19.084;2023-01-16T10:48:52;35.92;;;17.15;;
69046;SDS011;57261;47.504;19.084;2023-01-16T10:52:11;37.88;;;18.35;;
69046;SDS011;57261;47.504;19.084;2023-01-16T10:55:12;40.87;;;19.00;;
69046;SDS011;57261;47.504;19.084;2023-01-16T10:58:27;37.53;;;17.70;;
69046;SDS011;57261;47.504;19.084;2023-01-16T11:01:35;36.22;;;17.25;;
69046;SDS011;57261;47.504;19.084;2023-01-16T11:04:36;37.17;;;17.58;;
69046;SDS011;57261;47.504;19.084;2023-01-16T11:07:37;37.55;;;18.42;;
69046;SDS011;57261;47.504;19.084;2023-01-16T11:10:38;37.40;;;18.83;;
69046;SDS011;57261;47.504;19.084;2023-01-16T11:13:44;37.90;;;18.40;;
69046;SDS011;57261;47.504;19.084;2023-01-16T11:20:46;33.65;;;17.08;;
69046;SDS011;57261;47.504;19.084;2023-01-16T11:23:52;34.53;;;17.83;;
69046;SDS011;57261;47.504;19.084;2023-01-16T11:26:57;40.03;;;19.00;;
69046;SDS011;57261;47.504;19.084;2023-01-16T11:29:58;36.97;;;17.48;;
69046;SDS011;57261;47.504;19.084;2023-01-16T11:33:04;35.17;;;18.45;;
69046;SDS011;57261;47.504;19.084;2023-01-16T11:36:11;36.80;;;18.55;;
69046;SDS011;57261;47.504;19.084;2023-01-16T11:39:17;40.42;;;18.77;;
69046;SDS011;57261;47.504;19.084;2023-01-16T11:42:21;39.97;;;19.40;;
69046;SDS011;57261;47.504;19.084;2023-01-16T11:45:44;35.78;;;18.65;;
69046;SDS011;57261;47.504;19.084;2023-01-16T11:49:15;34.13;;;17.70;;
69046;SDS011;57261;47.504;19.084;2023-01-16T11:52:21;34.95;;;17.17;;
69046;SDS011;57261;47.504;19.084;2023-01-16T11:55:33;39.70;;;19.15;;
69046;SDS011;57261;47.504;19.084;2023-01-16T12:09:04;35.70;;;18.17;;
69046;SDS011;57261;47.504;19.084;2023-01-16T12:16:04;41.03;;;19.55;;
69046;SDS011;57261;47.504;19.084;2023-01-16T12:39:02;36.10;;;18.27;;
69046;SDS011;57261;47.504;19.084;2023-01-16T12:46:12;33.25;;;17.45;;
69046;SDS011;57261;47.504;19.084;2023-01-16T12:56:24;37.10;;;17.73;;
69046;SDS011;57261;47.504;19.084;2023-01-16T12:59:44;38.30;;;18.65;;
69046;SDS011;57261;47.504;19.084;2023-01-16T13:06:03;39.00;;;18.43;;
69046;SDS011;57261;47.504;19.084;2023-01-16T13:09:08;36.75;;;18.17;;
69046;SDS011;57261;47.504;19.084;2023-01-16T13:12:23;38.05;;;19.45;;
69046;SDS011;57261;47.504;19.084;2023-01-16T13:15:45;38.05;;;18.35;;
69046;SDS011;57261;47.504;19.084;2023-01-16T13:25:15;37.60;;;18.80;;
69046;SDS011;57261;47.504;19.084;2023-01-16T13:31:39;41.33;;;20.43;;
69046;SDS011;57261;47.504;19.084;2023-01-16T13:34:45;38.03;;;19.23;;
69046;SDS011;57261;47.504;19.084;2023-01-16T13:41:25;42.50;;;21.65;;
69046;SDS011;57261;47.504;19.084;2023-01-16T13:44:39;38.97;;;19.40;;
69046;SDS011;57261;47.504;19.084;2023-01-16T13:48:03;43.70;;;21.23;;
69046;SDS011;57261;47.504;19.084;2023-01-16T13:51:11;42.70;;;21.58;;
69046;SDS011;57261;47.504;19.084;2023-01-16T13:54:24;42.50;;;21.43;;
69046;SDS011;57261;47.504;19.084;2023-01-16T13:57:46;42.67;;;20.90;;
69046;SDS011;57261;47.504;19.084;2023-01-16T14:00:55;39.47;;;21.13;;
69046;SDS011;57261;47.504;19.084;2023-01-16T14:04:11;41.15;;;21.25;;
69046;SDS011;57261;47.504;19.084;2023-01-16T14:14:30;41.80;;;20.88;;
69046;SDS011;57261;47.504;19.084;2023-01-16T14:21:04;39.92;;;20.80;;
69046;SDS011;57261;47.504;19.084;2023-01-16T14:24:18;39.95;;;20.23;;
69046;SDS011;57261;47.504;19.084;2023-01-16T14:27:31;39.28;;;20.95;;
69046;SDS011;57261;47.504;19.084;2023-01-16T14:30:37;38.55;;;20.08;;
69046;SDS011;57261;47.504;19.084;2023-01-16T14:33:39;39.07;;;21.13;;
69046;SDS011;57261;47.504;19.084;2023-01-16T14:36:47;38.83;;;20.38;;
69046;SDS011;57261;47.504;19.084;2023-01-16T14:40:01;38.30;;;19.98;;
69046;SDS011;57261;47.504;19.084;2023-01-16T14:43:09;38.73;;;21.17;;
69046;SDS011;57261;47.504;19.084;2023-01-16T14:46:31;33.28;;;18.00;;
69046;SDS011;57261;47.504;19.084;2023-01-16T14:53:34;38.63;;;20.80;;
69046;SDS011;57261;47.504;19.084;2023-01-16T14:56:57;38.63;;;20.75;;
69046;SDS011;57261;47.504;19.084;2023-01-16T15:00:04;37.65;;;20.10;;
69046;SDS011;57261;47.504;19.084;2023-01-16T15:03:15;36.53;;;18.65;;
69046;SDS011;57261;47.504;19.084;2023-01-16T15:06:21;38.40;;;20.13;;
69046;SDS011;57261;47.504;19.084;2023-01-16T15:09:23;35.83;;;19.58;;
69046;SDS011;57261;47.504;19.084;2023-01-16T15:12:34;36.17;;;18.83;;
69046;SDS011;57261;47.504;19.084;2023-01-16T15:15:37;33.50;;;17.03;;
69046;SDS011;57261;47.504;19.084;2023-01-16T15:18:43;37.22;;;19.83;;
69046;SDS011;57261;47.504;19.084;2023-01-16T15:22:15;34.80;;;17.53;;
69046;SDS011;57261;47.504;19.084;2023-01-16T15:31:45;33.28;;;17.40;;
69046;SDS011;57261;47.504;19.084;2023-01-16T15:35:11;33.60;;;18.20;;
69046;SDS011;57261;47.504;19.084;2023-01-16T15:38:15;33.80;;;16.58;;
69046;SDS011;57261;47.504;19.084;2023-01-16T15:41:19;33.13;;;16.77;;
69046;SDS011;57261;47.504;19.084;2023-01-16T15:44:44;33.13;;;17.92;;
69046;SDS011;57261;47.504;19.084;2023-01-16T15:51:26;34.97;;;17.13;;
69046;SDS011;57261;47.504;19.084;2023-01-16T15:54:27;35.38;;;18.23;;
69046;SDS011;57261;47.504;19.084;2023-01-16T15:57:30;31.53;;;16.87;;
69046;SDS011;57261;47.504;19.084;2023-01-16T16:00:37;33.10;;;17.48;;
69046;SDS011;57261;47.504;19.084;2023-01-16T16:03:41;30.52;;;16.90;;
69046;SDS011;57261;47.504;19.084;2023-01-16T16:06:44;32.55;;;16.52;;
69046;SDS011;57261;47.504;19.084;2023-01-16T16:09:46;32.45;;;17.02;;
69046;SDS011;57261;47.504;19.084;2023-01-16T16:12:49;32.23;;;17.07;;
69046;SDS011;57261;47.504;19.084;2023-01-16T16:15:53;33.37;;;18.70;;
69046;SDS011;57261;47.504;19.084;2023-01-16T16:19:30;30.40;;;17.17;;
69046;SDS011;57261;47.504;19.084;2023-01-16T16:22:35;33.65;;;17.33;;
69046;SDS011;57261;47.504;19.084;2023-01-16T16:28:53;32.57;;;16.83;;
69046;SDS011;57261;47.504;19.084;2023-01-16T16:31:59;31.83;;;16.80;;
69046;SDS011;57261;47.504;19.084;2023-01-16T16:35:01;34.58;;;18.85;;
69046;SDS011;57261;47.504;19.084;2023-01-16T16:38:02;33.33;;;18.43;;
69046;SDS011;57261;47.504;19.084;2023-01-16T16:44:13;32.63;;;17.23;;
69046;SDS011;57261;47.504;19.084;2023-01-16T16:47:27;34.92;;;18.58;;
69046;SDS011;57261;47.504;19.084;2023-01-16T16:53:37;30.87;;;17.37;;
69046;SDS011;57261;47.504;19.084;2023-01-16T16:56:46;32.28;;;17.65;;
69046;SDS011;57261;47.504;19.084;2023-01-16T16:59:52;32.80;;;17.17;;
69046;SDS011;57261;47.504;19.084;2023-01-16T17:02:57;34.25;;;18.40;;
69046;SDS011;57261;47.504;19.084;2023-01-16T17:06:13;34.20;;;18.08;;
69046;SDS011;57261;47.504;19.084;2023-01-16T17:09:16;33.63;;;18.98;;
69046;SDS011;57261;47.504;19.084;2023-01-16T17:12:18;32.33;;;17.42;;
69046;SDS011;57261;47.504;19.084;2023-01-16T17:15:22;34.43;;;18.73;;
69046;SDS011;57261;47.504;19.084;2023-01-16T17:18:26;35.50;;;18.38;;
69046;SDS011;57261;47.504;19.084;2023-01-16T17:21:28;37.20;;;20.55;;
69046;SDS011;57261;47.504;19.084;2023-01-16T17:24:29;35.77;;;18.83;;
69046;SDS011;57261;47.504;19.084;2023-01-16T17:27:33;33.70;;;17.92;;
69046;SDS011;57261;47.504;19.084;2023-01-16T17:30:33;34.20;;;18.73;;
69046;SDS011;57261;47.504;19.084;2023-01-16T17:33:34;33.75;;;18.95;;
69046;SDS011;57261;47.504;19.084;2023-01-16T17:36:35;34.67;;;19.33;;
69046;SDS011;57261;47.504;19.084;2023-01-16T17:39:35;33.33;;;18.90;;
69046;SDS011;57261;47.504;19.084;2023-01-16T17:42:37;35.25;;;19.52;;
69046;SDS011;57261;47.504;19.084;2023-01-16T17:45:56;35.63;;;19.65;;
69046;SDS011;57261;47.504;19.084;2023-01-16T17:48:58;36.93;;;19.93;;
69046;SDS011;57261;47.504;19.084;2023-01-16T17:51:58;33.85;;;18.77;;
69046;SDS011;57261;47.504;19.084;2023-01-16T17:54:59;37.57;;;19.40;;
69046;SDS011;57261;47.504;19.084;2023-01-16T18:01:32;36.33;;;19.85;;
69046;SDS011;57261;47.504;19.084;2023-01-16T18:04:33;34.85;;;18.95;;
69046;SDS011;57261;47.504;19.084;2023-01-16T18:07:33;38.20;;;21.93;;
69046;SDS011;57261;47.504;19.084;2023-01-16T18:10:33;37.95;;;21.55;;
69046;SDS011;57261;47.504;19.084;2023-01-16T18:13:35;35.20;;;19.30;;
69046;SDS011;57261;47.504;19.084;2023-01-16T18:16:54;38.60;;;20.27;;
69046;SDS011;57261;47.504;19.084;2023-01-16T18:20:13;34.42;;;19.35;;
69046;SDS011;57261;47.504;19.084;2023-01-16T18:23:14;36.23;;;19.60;;
69046;SDS011;57261;47.504;19.084;2023-01-16T18:26:18;37.85;;;19.98;;
69046;SDS011;57261;47.504;19.084;2023-01-16T18:29:18;36.27;;;19.20;;
69046;SDS011;57261;47.504;19.084;2023-01-16T18:32:22;36.73;;;20.00;;
69046;SDS011;57261;47.504;19.084;2023-01-16T18:35:24;36.85;;;19.90;;
69046;SDS011;57261;47.504;19.084;2023-01-16T18:38:29;36.67;;;20.37;;
69046;SDS011;57261;47.504;19.084;2023-01-16T18:41:50;37.80;;;19.75;;
69046;SDS011;57261;47.504;19.084;2023-01-16T18:45:11;36.33;;;19.73;;
69046;SDS011;57261;47.504;19.084;2023-01-16T18:48:31;36.78;;;21.02;;
69046;SDS011;57261;47.504;19.084;2023-01-16T18:51:49;38.17;;;20.08;;
69046;SDS011;57261;47.504;19.084;2023-01-16T18:55:12;39.45;;;22.40;;
69046;SDS011;57261;47.504;19.084;2023-01-16T18:58:32;36.92;;;20.33;;
69046;SDS011;57261;47.504;19.084;2023-01-16T19:01:51;36.63;;;19.93;;
69046;SDS011;57261;47.504;19.084;2023-01-16T19:05:02;36.90;;;21.08;;
69046;SDS011;57261;47.504;19.084;2023-01-16T19:08:03;40.97;;;21.77;;
69046;SDS011;57261;47.504;19.084;2023-01-16T19:11:04;36.63;;;19.30;;
69046;SDS011;57261;47.504;19.084;2023-01-16T19:14:05;36.37;;;20.03;;
69046;SDS011;57261;47.504;19.084;2023-01-16T19:17:05;40.15;;;22.23;;
69046;SDS011;57261;47.504;19.084;2023-01-16T19:20:06;36.80;;;21.13;;
69046;SDS011;57261;47.504;19.084;2023-01-16T19:23:06;39.75;;;21.48;;
69046;SDS011;57261;47.504;19.084;2023-01-16T19:26:11;36.28;;;20.08;;
69046;SDS011;57261;47.504;19.084;2023-01-16T19:29:13;41.63;;;21.87;;
69046;SDS011;57261;47.504;19.084;2023-01-16T19:32:15;37.60;;;20.35;;
69046;SDS011;57261;47.504;19.084;2023-01-16T19:35:15;36.30;;;19.63;;
69046;SDS011;57261;47.504;19.084;2023-01-16T19:38:16;37.15;;;20.38;;
69046;SDS011;57261;47.504;19.084;2023-01-16T19:41:16;37.80;;;19.83;;
69046;SDS011;57261;47.504;19.084;2023-01-16T19:44:35;38.00;;;20.20;;
69046;SDS011;57261;47.504;19.084;2023-01-16T19:47:55;37.27;;;20.27;;
69046;SDS011;57261;47.504;19.084;2023-01-16T19:50:56;33.67;;;18.90;;
69046;SDS011;57261;47.504;19.084;2023-01-16T19:53:56;39.90;;;21.20;;
69046;SDS011;57261;47.504;19.084;2023-01-16T19:56:57;37.70;;;20.63;;
69046;SDS011;57261;47.504;19.084;2023-01-16T20:00:01;40.10;;;22.17;;
69046;SDS011;57261;47.504;19.084;2023-01-16T20:03:06;37.17;;;20.55;;
69046;SDS011;57261;47.504;19.084;2023-01-16T20:06:07;34.58;;;18.92;;
69046;SDS011;57261;47.504;19.084;2023-01-16T20:09:08;34.60;;;19.17;;
69046;SDS011;57261;47.504;19.084;2023-01-16T20:12:09;34.70;;;19.43;;
69046;SDS011;57261;47.504;19.084;2023-01-16T20:15:31;37.70;;;19.48;;
69046;SDS011;57261;47.504;19.084;2023-01-16T20:18:32;39.93;;;20.97;;
69046;SDS011;57261;47.504;19.084;2023-01-16T20:21:36;36.25;;;20.15;;
69046;SDS011;57261;47.504;19.084;2023-01-16T20:24:37;38.08;;;21.02;;
69046;SDS011;57261;47.504;19.084;2023-01-16T20:27:40;36.78;;;20.30;;
69046;SDS011;57261;47.504;19.084;2023-01-16T20:30:41;36.22;;;20.33;;